Time;durP1;ratioP1;P1;durP2;ratioP2;P2;SDS_P1;SDS_P2;PMS_P1;PMS_P2;Temp;Humidity;BMP_temperature;BMP_pressure;BME280_temperature;BME280_humidity;BME280_pressure;Samples;Min_cycle;Max_cycle;Signal;HPM_P1;HPM_P2
2022/05/26 00:01:48;;;;;;;1.50;0.97;;;;;;;;;;5069617;28;20019;-35
2022/05/26 00:04:13;;;;;;;1.92;1.02;;;;;;;;;;5072099;28;20269;-32
2022/05/26 00:06:38;;;;;;;4.32;0.82;;;;;;;;;;5074688;28;20020;-35
2022/05/26 00:09:03;;;;;;;2.45;1.10;;;;;;;;;;5077647;28;20028;-32
2022/05/26 00:11:29;;;;;;;1.92;0.80;;;;;;;;;;5074417;28;20111;-32
2022/05/26 00:13:55;;;;;;;1.73;0.90;;;;;;;;;;5073162;28;20031;-34
2022/05/26 00:16:20;;;;;;;1.92;1.05;;;;;;;;;;5077684;28;20042;-31
2022/05/26 00:18:45;;;;;;;1.63;1.08;;;;;;;;;;5070095;28;20774;-33
2022/05/26 00:21:11;;;;;;;2.10;0.90;;;;;;;;;;5073722;28;20551;-34
2022/05/26 00:23:36;;;;;;;1.33;0.70;;;;;;;;;;5077448;28;20709;-39
2022/05/26 00:26:01;;;;;;;1.75;0.85;;;;;;;;;;5077816;28;20436;-37
2022/05/26 00:28:26;;;;;;;1.92;0.98;;;;;;;;;;5080780;28;20719;-37
2022/05/26 00:30:53;;;;;;;2.05;0.80;;;;;;;;;;5073673;28;20018;-34
2022/05/26 00:33:19;;;;;;;1.58;0.82;;;;;;;;;;5074361;28;20032;-32
2022/05/26 00:35:44;;;;;;;2.90;1.38;;;;;;;;;;5071473;28;20032;-35
2022/05/26 00:38:10;;;;;;;2.90;1.00;;;;;;;;;;5071803;28;20588;-34
2022/05/26 00:40:36;;;;;;;2.47;0.90;;;;;;;;;;5070994;28;21016;-32
2022/05/26 00:43:02;;;;;;;1.50;1.00;;;;;;;;;;5073832;28;20118;-33
2022/05/26 00:45:41;;;;;;;1.17;0.93;;;;;;;;;;5071557;28;20016;-33
2022/05/26 00:48:07;;;;;;;1.85;0.80;;;;;;;;;;5080738;28;20016;-33
2022/05/26 00:50:32;;;;;;;2.50;0.88;;;;;;;;;;5058661;28;20118;-38
2022/05/26 00:52:58;;;;;;;2.35;0.80;;;;;;;;;;5051820;28;20019;-32
2022/05/26 00:55:27;;;;;;;1.52;0.90;;;;;;;;;;5056864;28;22029;-38
2022/05/26 00:57:53;;;;;;;1.08;0.90;;;;;;;;;;5069880;28;20024;-36
2022/05/26 01:00:20;;;;;;;1.55;0.68;;;;;;;;;;5072010;28;20015;-34
2022/05/26 01:02:52;;;;;;;1.33;0.77;;;;;;;;;;5076291;28;20786;-36
2022/05/26 01:05:17;;;;;;;;;;;;;;;;;;5057475;28;20035;-35
2022/05/26 01:07:42;;;;;;;0.90;0.60;;;;;;;;;;5074915;28;19920;-33
2022/05/26 01:10:08;;;;;;;3.73;0.80;;;;;;;;;;5070676;28;20371;-34
2022/05/26 01:12:33;;;;;;;2.65;0.98;;;;;;;;;;5074735;28;20311;-33
2022/05/26 01:15:01;;;;;;;2.75;0.85;;;;;;;;;;5071939;28;20051;-34
2022/05/26 01:17:26;;;;;;;3.95;0.80;;;;;;;;;;5071197;28;20946;-32
2022/05/26 01:20:11;;;;;;;1.33;0.90;;;;;;;;;;5071041;28;20056;-37
2022/05/26 01:22:54;;;;;;;1.20;0.70;;;;;;;;;;5072573;28;20028;-33
2022/05/26 01:25:35;;;;;;;1.30;0.82;;;;;;;;;;5073117;28;20024;-31
2022/05/26 01:28:03;;;;;;;1.20;0.70;;;;;;;;;;5070873;28;20028;-33
2022/05/26 01:30:46;;;;;;;2.00;0.85;;;;;;;;;;5068574;28;20019;-34
2022/05/26 01:33:17;;;;;;;1.50;0.70;;;;;;;;;;5072497;28;20027;-33
2022/05/26 01:35:42;;;;;;;2.58;0.70;;;;;;;;;;5057518;28;20127;-34
2022/05/26 01:38:17;;;;;;;1.98;1.15;;;;;;;;;;5072378;28;20059;-36
2022/05/26 01:40:48;;;;;;;2.20;0.70;;;;;;;;;;5072657;28;20075;-33
2022/05/26 01:43:36;;;;;;;1.13;0.70;;;;;;;;;;5073752;28;20020;-33
2022/05/26 01:46:27;;;;;;;1.73;0.75;;;;;;;;;;5057368;28;20059;-33
2022/05/26 01:49:04;;;;;;;0.90;0.70;;;;;;;;;;5070132;28;20027;-31
2022/05/26 01:51:33;;;;;;;0.65;0.47;;;;;;;;;;5057406;28;20064;-33
2022/05/26 01:53:58;;;;;;;1.63;0.80;;;;;;;;;;5052355;28;20031;-35
2022/05/26 01:56:28;;;;;;;0.80;0.60;;;;;;;;;;5071462;28;20047;-37
2022/05/26 01:58:59;;;;;;;1.60;0.90;;;;;;;;;;5053365;28;20288;-33
2022/05/26 02:01:27;;;;;;;1.17;0.70;;;;;;;;;;5065468;28;20632;-36
2022/05/26 02:03:52;;;;;;;0.88;0.57;;;;;;;;;;5066661;28;20170;-34
2022/05/26 02:06:22;;;;;;;0.75;0.47;;;;;;;;;;5055484;28;20543;-32
2022/05/26 02:08:55;;;;;;;0.88;0.55;;;;;;;;;;5062003;28;20026;-35
2022/05/26 02:11:20;;;;;;;1.13;0.70;;;;;;;;;;5062243;28;20027;-34
2022/05/26 02:13:49;;;;;;;2.13;0.80;;;;;;;;;;5080157;28;20028;-34
2022/05/26 02:16:17;;;;;;;2.13;0.70;;;;;;;;;;5082800;28;20634;-35
2022/05/26 02:19:09;;;;;;;1.23;0.70;;;;;;;;;;5081713;28;20026;-33
2022/05/26 02:21:34;;;;;;;;;;;;;;;;;;5078958;28;20529;-33
2022/05/26 02:24:01;;;;;;;1.02;0.68;;;;;;;;;;5083554;28;20360;-32
2022/05/26 02:26:26;;;;;;;4.80;0.80;;;;;;;;;;5063668;28;20020;-31
2022/05/26 02:31:36;;;;;;;35.95;1.35;;;;;;;;;;5086452;28;20085;-35
2022/05/26 02:34:01;;;;;;;0.70;0.50;;;;;;;;;;5069265;28;20012;-34
2022/05/26 02:36:30;;;;;;;1.23;0.73;;;;;;;;;;5079614;28;20519;-34
2022/05/26 02:38:55;;;;;;;1.00;0.45;;;;;;;;;;5063758;28;20348;-35
2022/05/26 02:41:21;;;;;;;2.95;0.90;;;;;;;;;;5082285;28;20034;-32
2022/05/26 02:43:47;;;;;;;0.73;0.60;;;;;;;;;;5083914;28;21005;-33
2022/05/26 02:46:27;;;;;;;2.05;0.75;;;;;;;;;;5082597;28;20016;-33
2022/05/26 02:49:04;;;;;;;3.08;0.70;;;;;;;;;;5082598;28;20015;-32
2022/05/26 02:51:32;;;;;;;1.30;0.70;;;;;;;;;;5083854;28;20099;-32
2022/05/26 02:54:10;;;;;;;0.60;0.50;;;;;;;;;;5083420;28;20395;-31
2022/05/26 02:56:45;;;;;;;0.45;0.43;;;;;;;;;;5066770;28;20102;-31
2022/05/26 02:59:16;;;;;;;0.70;0.45;;;;;;;;;;5065793;28;20030;-32
2022/05/26 03:02:04;;;;;;;1.35;0.70;;;;;;;;;;5086983;28;20032;-33
2022/05/26 03:04:34;;;;;;;1.30;0.47;;;;;;;;;;5069070;28;20036;-34
2022/05/26 03:07:00;;;;;;;0.90;0.52;;;;;;;;;;5067770;28;20032;-35
2022/05/26 03:09:25;;;;;;;0.95;0.60;;;;;;;;;;5080750;28;20395;-32
2022/05/26 03:11:55;;;;;;;1.35;0.70;;;;;;;;;;5063601;28;20032;-32
2022/05/26 03:14:20;;;;;;;1.95;0.52;;;;;;;;;;5080959;28;20893;-31
2022/05/26 03:16:45;;;;;;;0.80;0.40;;;;;;;;;;5083630;28;20110;-34
2022/05/26 03:19:11;;;;;;;0.77;0.55;;;;;;;;;;5080664;28;20101;-32
2022/05/26 03:21:36;;;;;;;0.70;0.68;;;;;;;;;;5084442;28;20150;-33
2022/05/26 03:24:01;;;;;;;1.20;0.70;;;;;;;;;;5084889;28;20023;-33
2022/05/26 03:26:26;;;;;;;0.80;0.70;;;;;;;;;;5081832;28;20030;-32
2022/05/26 03:28:52;;;;;;;3.97;0.70;;;;;;;;;;5082341;28;20024;-33
2022/05/26 03:31:17;;;;;;;0.80;0.50;;;;;;;;;;5081366;28;20023;-33
2022/05/26 03:41:54;;;;;;;3.35;0.95;;;;;;;;;;5079930;28;20108;-34
2022/05/26 03:44:19;;;;;;;1.02;0.50;;;;;;;;;;5079057;28;20075;-33
2022/05/26 03:46:45;;;;;;;1.90;0.70;;;;;;;;;;5078673;28;20132;-32
2022/05/26 03:49:10;;;;;;;2.35;0.50;;;;;;;;;;5062608;28;20012;-34
2022/05/26 03:51:35;;;;;;;1.08;0.68;;;;;;;;;;5080108;28;21090;-34
2022/05/26 03:54:00;;;;;;;1.40;0.70;;;;;;;;;;5079083;28;20053;-31
2022/05/26 03:56:25;;;;;;;1.38;0.60;;;;;;;;;;5083828;28;20429;-35
2022/05/26 03:58:51;;;;;;;1.42;0.60;;;;;;;;;;5076903;28;20032;-34
2022/05/26 04:01:16;;;;;;;0.63;0.50;;;;;;;;;;5058364;28;20031;-34
2022/05/26 04:03:41;;;;;;;1.88;0.70;;;;;;;;;;5078800;28;20039;-33
2022/05/26 04:06:06;;;;;;;1.35;0.75;;;;;;;;;;5079468;28;20122;-32
2022/05/26 04:08:31;;;;;;;0.50;0.50;;;;;;;;;;5081041;28;20058;-32
2022/05/26 04:10:57;;;;;;;1.17;0.60;;;;;;;;;;5081264;28;20020;-34
2022/05/26 04:13:22;;;;;;;1.02;0.47;;;;;;;;;;5084277;28;20024;-32
2022/05/26 04:15:47;;;;;;;1.05;0.50;;;;;;;;;;5078189;28;20765;-33
2022/05/26 04:18:12;;;;;;;0.40;0.40;;;;;;;;;;5075810;28;20071;-33
2022/05/26 04:20:38;;;;;;;1.27;0.50;;;;;;;;;;5076159;28;20270;-34
2022/05/26 04:23:03;;;;;;;0.37;0.37;;;;;;;;;;5077790;28;20143;-33
2022/05/26 04:25:29;;;;;;;0.90;0.50;;;;;;;;;;5077018;28;20269;-33
2022/05/26 04:27:54;;;;;;;0.95;0.60;;;;;;;;;;5082989;28;20019;-32
2022/05/26 04:30:19;;;;;;;1.98;0.50;;;;;;;;;;5073323;28;20035;-33
2022/05/26 04:32:45;;;;;;;1.08;0.50;;;;;;;;;;5079179;28;20096;-32
2022/05/26 04:35:10;;;;;;;0.40;0.32;;;;;;;;;;5071841;28;21947;-32
2022/05/26 04:37:35;;;;;;;1.50;0.50;;;;;;;;;;5074384;28;20062;-35
2022/05/26 04:40:01;;;;;;;0.85;0.45;;;;;;;;;;5071477;28;20058;-32
2022/05/26 04:42:26;;;;;;;1.17;0.50;;;;;;;;;;5074986;28;20974;-34
2022/05/26 04:44:51;;;;;;;0.40;0.40;;;;;;;;;;5071479;28;20035;-34
2022/05/26 04:47:17;;;;;;;0.45;0.40;;;;;;;;;;5069668;28;20031;-33
2022/05/26 04:49:43;;;;;;;0.80;0.50;;;;;;;;;;5072729;28;20026;-32
2022/05/26 04:52:09;;;;;;;1.40;0.60;;;;;;;;;;5075596;28;20025;-36
2022/05/26 04:54:36;;;;;;;1.80;0.55;;;;;;;;;;5071970;28;20019;-37
2022/05/26 04:57:01;;;;;;;2.42;0.38;;;;;;;;;;5077492;28;20165;-32
2022/05/26 04:59:26;;;;;;;1.85;0.50;;;;;;;;;;5078714;28;20945;-33
2022/05/26 05:01:51;;;;;;;1.90;0.40;;;;;;;;;;5075810;28;20047;-37
2022/05/26 05:04:17;;;;;;;4.07;0.40;;;;;;;;;;5074228;28;20054;-36
2022/05/26 05:06:43;;;;;;;1.20;0.50;;;;;;;;;;5072546;28;20334;-32
2022/05/26 05:09:08;;;;;;;0.93;0.40;;;;;;;;;;5069097;28;20044;-35
2022/05/26 05:11:34;;;;;;;1.13;0.50;;;;;;;;;;5072235;28;20020;-31
2022/05/26 05:14:00;;;;;;;1.23;0.40;;;;;;;;;;5069571;28;20197;-33
2022/05/26 05:16:30;;;;;;;2.10;0.55;;;;;;;;;;5054227;28;20063;-38
2022/05/26 05:18:55;;;;;;;0.55;0.40;;;;;;;;;;5051943;28;20020;-34
2022/05/26 05:21:22;;;;;;;1.08;0.52;;;;;;;;;;5071618;28;20728;-32
2022/05/26 05:23:48;;;;;;;1.08;0.43;;;;;;;;;;5072921;28;20023;-40
2022/05/26 05:26:14;;;;;;;1.58;0.35;;;;;;;;;;5073937;28;20012;-32
2022/05/26 05:28:40;;;;;;;1.13;0.50;;;;;;;;;;5079258;28;20062;-33
2022/05/26 05:31:10;;;;;;;0.70;0.43;;;;;;;;;;5050549;28;20089;-35
2022/05/26 05:33:41;;;;;;;0.95;0.30;;;;;;;;;;5068506;28;21006;-32
2022/05/26 05:36:11;;;;;;;0.75;0.40;;;;;;;;;;5070483;28;20468;-35
2022/05/26 05:38:38;;;;;;;1.23;0.50;;;;;;;;;;5052565;28;20669;-34
2022/05/26 05:41:03;;;;;;;0.77;0.22;;;;;;;;;;5070480;28;20073;-36
2022/05/26 05:43:29;;;;;;;1.10;0.50;;;;;;;;;;5073489;28;20028;-33
2022/05/26 05:45:54;;;;;;;0.35;0.32;;;;;;;;;;5059937;28;20103;-34
2022/05/26 05:48:21;;;;;;;0.95;0.50;;;;;;;;;;5069344;28;20035;-34
2022/05/26 05:50:46;;;;;;;0.50;0.30;;;;;;;;;;5076253;28;20036;-33
2022/05/26 05:53:12;;;;;;;0.38;0.30;;;;;;;;;;5069248;28;21619;-32
2022/05/26 05:55:37;;;;;;;0.65;0.43;;;;;;;;;;5077201;28;20519;-33
2022/05/26 05:58:07;;;;;;;0.77;0.38;;;;;;;;;;5075505;28;20040;-34
2022/05/26 06:00:32;;;;;;;1.20;0.60;;;;;;;;;;5073897;28;20023;-33
2022/05/26 06:02:57;;;;;;;0.65;0.40;;;;;;;;;;5065464;28;20031;-35
2022/05/26 06:05:22;;;;;;;1.17;0.55;;;;;;;;;;5078150;28;20023;-33
2022/05/26 06:07:48;;;;;;;0.45;0.30;;;;;;;;;;5069101;28;21319;-36
2022/05/26 06:10:14;;;;;;;1.58;0.60;;;;;;;;;;5074787;28;21886;-32
2022/05/26 06:12:39;;;;;;;0.88;0.40;;;;;;;;;;5073104;28;20076;-36
2022/05/26 06:15:04;;;;;;;1.20;0.47;;;;;;;;;;5073571;28;20653;-37
2022/05/26 06:17:30;;;;;;;0.73;0.45;;;;;;;;;;5073931;28;20032;-32
2022/05/26 06:19:55;;;;;;;2.05;0.43;;;;;;;;;;5071416;28;22283;-35
2022/05/26 06:22:20;;;;;;;1.48;0.50;;;;;;;;;;5075788;28;20438;-34
2022/05/26 06:24:46;;;;;;;1.90;0.50;;;;;;;;;;5074616;28;20490;-35
2022/05/26 06:29:56;;;;;;;2.90;0.93;;;;;;;;;;5080199;28;20026;-32
2022/05/26 06:37:49;;;;;;;11.00;0.98;;;;;;;;;;5071210;28;20043;-33
2022/05/26 06:40:15;;;;;;;8.07;1.38;;;;;;;;;;5070616;28;20055;-34
2022/05/26 06:42:40;;;;;;;6.18;0.90;;;;;;;;;;5046527;28;20023;-34
2022/05/26 06:45:06;;;;;;;3.97;1.20;;;;;;;;;;5085815;28;20735;-34
2022/05/26 06:47:31;;;;;;;4.00;1.27;;;;;;;;;;5075880;28;20558;-36
2022/05/26 06:49:56;;;;;;;3.30;1.23;;;;;;;;;;5082791;28;20029;-34
2022/05/26 06:52:22;;;;;;;5.07;1.45;;;;;;;;;;5082516;28;20652;-34
2022/05/26 06:54:47;;;;;;;4.68;1.55;;;;;;;;;;5082009;28;20686;-32
2022/05/26 06:57:14;;;;;;;3.35;1.33;;;;;;;;;;5080817;28;20035;-36
2022/05/26 06:59:39;;;;;;;5.40;1.58;;;;;;;;;;5080649;28;20124;-34
2022/05/26 07:02:05;;;;;;;5.40;1.63;;;;;;;;;;5082626;28;20015;-32
2022/05/26 07:04:30;;;;;;;4.95;1.48;;;;;;;;;;5083741;28;20111;-33
2022/05/26 07:06:56;;;;;;;6.63;1.65;;;;;;;;;;5083094;28;20111;-35
2022/05/26 07:09:21;;;;;;;5.03;1.55;;;;;;;;;;5086558;28;20031;-32
2022/05/26 07:11:47;;;;;;;3.67;1.40;;;;;;;;;;5089149;28;20039;-36
2022/05/26 07:14:12;;;;;;;6.57;1.20;;;;;;;;;;5082471;28;21242;-36
2022/05/26 07:16:37;;;;;;;5.05;1.50;;;;;;;;;;5077818;28;20723;-34
2022/05/26 07:19:02;;;;;;;5.57;1.50;;;;;;;;;;5077538;28;20031;-34
2022/05/26 07:21:28;;;;;;;4.00;1.08;;;;;;;;;;5077358;28;20679;-33
2022/05/26 07:23:53;;;;;;;4.07;1.20;;;;;;;;;;5076759;28;20636;-34
2022/05/26 07:26:18;;;;;;;3.75;1.52;;;;;;;;;;5080050;28;20027;-34
2022/05/26 07:28:43;;;;;;;3.70;1.52;;;;;;;;;;5077039;28;20027;-35
2022/05/26 07:31:09;;;;;;;6.32;1.80;;;;;;;;;;5078771;28;20483;-33
2022/05/26 07:33:34;;;;;;;3.42;1.42;;;;;;;;;;5075341;28;20500;-33
2022/05/26 07:35:59;;;;;;;4.70;1.52;;;;;;;;;;5074159;28;20120;-34
2022/05/26 07:41:27;;;;;;;4.88;1.50;;;;;;;;;;5075849;28;20081;-32
2022/05/26 07:43:54;;;;;;;5.40;1.70;;;;;;;;;;5076661;28;20565;-35
2022/05/26 07:46:21;;;;;;;6.10;1.30;;;;;;;;;;5071582;28;20031;-35
2022/05/26 07:48:46;;;;;;;2.88;1.30;;;;;;;;;;5072380;28;20031;-32
2022/05/26 07:51:11;;;;;;;3.67;1.63;;;;;;;;;;5071093;28;20031;-35
2022/05/26 07:53:36;;;;;;;3.47;1.60;;;;;;;;;;5074248;28;20020;-33
2022/05/26 07:56:02;;;;;;;3.47;1.40;;;;;;;;;;5076916;28;20045;-33
2022/05/26 07:58:27;;;;;;;2.78;1.33;;;;;;;;;;5077692;28;20024;-34
2022/05/26 08:00:54;;;;;;;4.38;1.30;;;;;;;;;;5067056;28;20044;-34
2022/05/26 08:03:19;;;;;;;3.00;1.02;;;;;;;;;;5071831;28;20032;-32
2022/05/26 08:05:45;;;;;;;5.78;1.15;;;;;;;;;;5073184;28;20035;-33
2022/05/26 08:08:10;;;;;;;3.00;1.10;;;;;;;;;;5072501;28;20032;-34
2022/05/26 08:10:35;;;;;;;3.53;0.80;;;;;;;;;;5072037;28;20114;-33
2022/05/26 08:13:00;;;;;;;9.30;0.90;;;;;;;;;;5071819;28;20160;-33
2022/05/26 08:15:26;;;;;;;4.45;1.20;;;;;;;;;;5066739;28;20020;-34
2022/05/26 08:17:51;;;;;;;3.38;0.82;;;;;;;;;;5065166;28;20422;-33
2022/05/26 08:20:17;;;;;;;4.38;1.05;;;;;;;;;;5067796;28;20587;-33
2022/05/26 08:22:42;;;;;;;3.03;0.65;;;;;;;;;;5069859;28;20020;-33
2022/05/26 08:25:09;;;;;;;3.15;0.80;;;;;;;;;;5075100;28;20102;-34
2022/05/26 08:27:34;;;;;;;2.05;0.65;;;;;;;;;;5078787;28;20077;-32
2022/05/26 08:29:59;;;;;;;1.30;0.63;;;;;;;;;;5075573;28;20106;-32
2022/05/26 08:32:25;;;;;;;3.60;1.00;;;;;;;;;;5073721;28;20749;-31
2022/05/26 08:34:55;;;;;;;3.58;0.70;;;;;;;;;;5080642;28;20123;-33
2022/05/26 08:37:21;;;;;;;2.58;0.60;;;;;;;;;;5072914;28;20163;-34
2022/05/26 08:39:46;;;;;;;1.83;0.50;;;;;;;;;;5077074;28;20497;-34
2022/05/26 08:42:14;;;;;;;2.00;0.73;;;;;;;;;;5073797;28;20112;-34
2022/05/26 08:44:39;;;;;;;4.10;1.02;;;;;;;;;;5054334;28;20032;-32
2022/05/26 08:47:04;;;;;;;16.58;1.10;;;;;;;;;;5071208;28;20027;-34
2022/05/26 08:49:40;;;;;;;5.57;0.85;;;;;;;;;;5070645;28;20032;-34
2022/05/26 08:52:05;;;;;;;2.58;0.88;;;;;;;;;;5073232;28;20212;-35
2022/05/26 08:54:38;;;;;;;5.25;1.20;;;;;;;;;;5073917;28;20027;-32
2022/05/26 08:57:03;;;;;;;3.15;1.08;;;;;;;;;;5056525;28;20036;-34
2022/05/26 08:59:39;;;;;;;5.32;1.20;;;;;;;;;;5077420;28;20020;-36
2022/05/26 09:02:05;;;;;;;2.90;1.10;;;;;;;;;;5076590;28;20027;-36
2022/05/26 09:04:30;;;;;;;8.75;1.83;;;;;;;;;;5074263;28;20455;-35
2022/05/26 09:15:09;;;;;;;7.32;1.60;;;;;;;;;;5066924;28;20088;-33
2022/05/26 09:17:35;;;;;;;4.18;1.30;;;;;;;;;;5072044;28;20035;-32
2022/05/26 09:20:04;;;;;;;9.10;2.22;;;;;;;;;;5055608;28;20457;-34
2022/05/26 09:22:47;;;;;;;9.35;1.98;;;;;;;;;;5072307;28;20027;-34
2022/05/26 09:25:14;;;;;;;6.53;1.98;;;;;;;;;;5073551;28;20034;-34
2022/05/26 09:27:39;;;;;;;7.97;2.33;;;;;;;;;;5075620;28;20032;-33
2022/05/26 09:30:20;;;;;;;11.10;2.38;;;;;;;;;;5053967;28;20962;-34
2022/05/26 09:32:45;;;;;;;8.85;1.95;;;;;;;;;;5074947;28;20027;-33
2022/05/26 09:35:29;;;;;;;5.55;1.90;;;;;;;;;;5075693;28;20092;-34
2022/05/26 09:37:56;;;;;;;7.68;2.20;;;;;;;;;;5086288;27;20413;-36
2022/05/26 09:40:21;;;;;;;10.52;2.40;;;;;;;;;;5103879;27;20559;-34
2022/05/26 09:42:51;;;;;;;6.35;2.53;;;;;;;;;;5106779;27;20036;-36
2022/05/26 09:45:16;;;;;;;8.63;2.95;;;;;;;;;;5107546;27;20030;-31
2022/05/26 09:48:02;;;;;;;9.98;2.53;;;;;;;;;;5109360;28;20023;-34
2022/05/26 09:50:33;;;;;;;8.65;2.60;;;;;;;;;;5107782;28;20095;-34
2022/05/26 09:52:59;;;;;;;9.65;2.83;;;;;;;;;;5108213;28;20022;-33
2022/05/26 09:55:26;;;;;;;5.38;2.00;;;;;;;;;;5106996;27;20031;-33
2022/05/26 09:58:06;;;;;;;10.65;2.47;;;;;;;;;;5106016;27;20575;-33
2022/05/26 10:00:36;;;;;;;6.80;2.15;;;;;;;;;;5109246;28;20035;-34
2022/05/26 10:03:16;;;;;;;7.80;2.35;;;;;;;;;;5109652;28;20031;-34
2022/05/26 10:05:51;;;;;;;9.75;2.20;;;;;;;;;;5088288;28;20027;-33
2022/05/26 10:08:25;;;;;;;5.40;1.95;;;;;;;;;;5090051;28;20820;-35
2022/05/26 10:10:52;;;;;;;6.60;2.35;;;;;;;;;;5092255;28;20655;-35
2022/05/26 10:13:36;;;;;;;10.23;2.30;;;;;;;;;;5107102;28;20023;-39
2022/05/26 10:16:11;;;;;;;6.75;1.98;;;;;;;;;;5107885;27;20042;-35
2022/05/26 10:18:39;;;;;;;6.20;2.38;;;;;;;;;;5106412;27;20027;-32
2022/05/26 10:21:31;;;;;;;7.32;2.10;;;;;;;;;;5105308;28;20026;-34
2022/05/26 10:24:02;;;;;;;6.75;1.80;;;;;;;;;;5071141;28;20131;-32
2022/05/26 10:26:27;;;;;;;;;;;;;;;;;;5089217;28;20035;-36
2022/05/26 10:28:55;;;;;;;4.63;2.10;;;;;;;;;;5108106;28;19915;-33
2022/05/26 10:31:21;;;;;;;6.45;2.00;;;;;;;;;;5105898;28;20115;-36
2022/05/26 10:33:49;;;;;;;7.57;2.03;;;;;;;;;;5110265;27;20522;-32
2022/05/26 10:36:25;;;;;;;5.00;1.77;;;;;;;;;;5108412;27;20095;-35
2022/05/26 10:39:00;;;;;;;4.68;1.92;;;;;;;;;;5107999;27;20095;-35
2022/05/26 10:41:37;;;;;;;5.72;2.03;;;;;;;;;;5104491;27;20235;-35
2022/05/26 10:44:04;;;;;;;6.30;1.92;;;;;;;;;;5106234;27;20023;-37
2022/05/26 10:46:29;;;;;;;4.90;2.05;;;;;;;;;;5089671;28;20087;-34
2022/05/26 10:49:15;;;;;;;5.28;1.67;;;;;;;;;;5089487;28;20118;-34
2022/05/26 10:51:41;;;;;;;4.53;1.70;;;;;;;;;;5107442;27;20471;-39
2022/05/26 10:54:08;;;;;;;4.35;1.73;;;;;;;;;;5108582;28;20076;-34
2022/05/26 10:56:39;;;;;;;5.80;1.92;;;;;;;;;;5089361;28;20088;-32
2022/05/26 10:59:08;;;;;;;6.47;1.80;;;;;;;;;;5107157;27;20102;-33
2022/05/26 11:01:58;;;;;;;3.65;1.83;;;;;;;;;;5085935;27;20023;-36
2022/05/26 11:04:25;;;;;;;5.93;1.60;;;;;;;;;;5098077;28;20032;-34
2022/05/26 11:06:51;;;;;;;5.55;1.88;;;;;;;;;;5109034;27;20008;-32
2022/05/26 11:09:25;;;;;;;4.65;1.70;;;;;;;;;;5089072;28;20108;-34
2022/05/26 11:11:52;;;;;;;5.55;1.92;;;;;;;;;;5105624;27;20107;-35
2022/05/26 11:17:23;;;;;;;4.15;1.50;;;;;;;;;;5089754;28;20038;-36
2022/05/26 11:19:54;;;;;;;3.53;1.70;;;;;;;;;;5107428;28;20670;-33
2022/05/26 11:22:19;;;;;;;6.30;1.52;;;;;;;;;;5107201;28;20126;-33
2022/05/26 11:24:51;;;;;;;5.50;1.55;;;;;;;;;;5106254;27;20453;-33
2022/05/26 11:27:16;;;;;;;;;;;;;;;;;;5088768;28;20019;-33
2022/05/26 11:29:44;;;;;;;2.35;1.35;;;;;;;;;;5109602;28;19918;-34
2022/05/26 11:37:39;;;;;;;4.45;1.63;;;;;;;;;;5091853;28;21005;-32
2022/05/26 11:40:06;;;;;;;3.97;1.60;;;;;;;;;;5088738;28;20107;-34
2022/05/26 11:42:32;;;;;;;3.67;1.20;;;;;;;;;;5089143;28;20082;-33
2022/05/26 11:45:09;;;;;;;6.72;1.70;;;;;;;;;;5108829;28;20680;-35
2022/05/26 11:47:34;;;;;;;3.42;1.50;;;;;;;;;;5104970;27;20151;-35
2022/05/26 11:50:01;;;;;;;3.63;1.63;;;;;;;;;;5107891;27;20385;-34
2022/05/26 11:52:26;;;;;;;4.97;1.45;;;;;;;;;;5106480;28;20064;-34
2022/05/26 11:54:55;;;;;;;3.73;1.50;;;;;;;;;;5106081;28;20403;-36
2022/05/26 11:57:32;;;;;;;1.95;1.27;;;;;;;;;;5105923;27;20312;-34
2022/05/26 12:00:16;;;;;;;2.58;1.50;;;;;;;;;;5108673;28;20533;-35
2022/05/26 12:02:42;;;;;;;4.00;1.55;;;;;;;;;;5106042;27;20027;-32
2022/05/26 12:05:26;;;;;;;4.70;1.60;;;;;;;;;;5088220;28;20015;-33
2022/05/26 12:07:51;;;;;;;4.00;1.23;;;;;;;;;;5105015;27;20025;-33
2022/05/26 12:10:18;;;;;;;2.33;1.08;;;;;;;;;;5107487;27;20444;-32
2022/05/26 12:12:43;;;;;;;3.03;1.15;;;;;;;;;;5105923;27;20027;-34
2022/05/26 12:15:19;;;;;;;3.15;1.38;;;;;;;;;;5088846;28;20023;-34
2022/05/26 12:17:55;;;;;;;2.58;1.10;;;;;;;;;;5105278;27;20023;-34
2022/05/26 12:20:21;;;;;;;2.83;1.23;;;;;;;;;;5086986;28;20031;-34
2022/05/26 12:22:52;;;;;;;3.43;1.20;;;;;;;;;;5107617;28;20018;-34
2022/05/26 12:25:17;;;;;;;3.78;1.55;;;;;;;;;;5107633;27;20281;-33
2022/05/26 12:27:49;;;;;;;2.23;1.00;;;;;;;;;;5107905;28;20085;-38
2022/05/26 12:30:33;;;;;;;2.33;1.33;;;;;;;;;;5106759;27;20284;-34
2022/05/26 12:32:59;;;;;;;2.95;1.15;;;;;;;;;;5104632;27;20027;-34
2022/05/26 12:35:28;;;;;;;3.35;1.30;;;;;;;;;;5087137;28;20385;-35
2022/05/26 12:38:06;;;;;;;2.92;1.30;;;;;;;;;;5088026;28;20430;-35
2022/05/26 12:40:34;;;;;;;3.75;1.42;;;;;;;;;;5089182;28;20533;-36
2022/05/26 12:43:02;;;;;;;2.35;1.27;;;;;;;;;;5104915;27;20175;-34
2022/05/26 12:45:40;;;;;;;4.30;0.85;;;;;;;;;;5103945;27;20026;-33
2022/05/26 12:48:09;;;;;;;2.42;1.17;;;;;;;;;;5105585;28;20133;-32
2022/05/26 12:50:38;;;;;;;2.65;1.10;;;;;;;;;;5104466;28;20019;-33
2022/05/26 12:53:06;;;;;;;2.83;1.23;;;;;;;;;;5105112;27;20023;-34
2022/05/26 12:55:35;;;;;;;2.97;1.20;;;;;;;;;;5086441;28;20018;-33
2022/05/26 12:58:00;;;;;;;2.05;1.17;;;;;;;;;;5106851;28;20054;-33
2022/05/26 13:00:31;;;;;;;2.93;1.40;;;;;;;;;;5104901;27;20099;-34
2022/05/26 13:02:58;;;;;;;2.53;1.17;;;;;;;;;;5105570;27;20352;-34
2022/05/26 13:05:23;;;;;;;2.25;0.93;;;;;;;;;;5106146;28;20094;-35
2022/05/26 13:07:53;;;;;;;2.95;1.00;;;;;;;;;;5085810;28;20031;-34
2022/05/26 13:10:20;;;;;;;1.33;0.85;;;;;;;;;;5104188;28;20100;-35
2022/05/26 13:12:46;;;;;;;2.70;1.10;;;;;;;;;;5086508;28;20102;-33
2022/05/26 13:15:11;;;;;;;2.53;1.00;;;;;;;;;;5088789;28;20027;-35
2022/05/26 13:17:36;;;;;;;2.83;0.98;;;;;;;;;;5105721;28;20493;-33
2022/05/26 13:20:03;;;;;;;1.98;0.95;;;;;;;;;;5076228;27;20027;-34
2022/05/26 13:22:32;;;;;;;2.20;1.10;;;;;;;;;;5092301;27;20018;-33
2022/05/26 13:24:58;;;;;;;2.85;1.10;;;;;;;;;;5092875;27;20027;-34
2022/05/26 13:27:24;;;;;;;1.83;0.95;;;;;;;;;;5089345;27;20015;-35
2022/05/26 13:29:50;;;;;;;2.53;1.20;;;;;;;;;;5092776;27;20012;-33
2022/05/26 13:35:01;;;;;;;1.90;0.80;;;;;;;;;;5092441;27;20806;-34
2022/05/26 13:37:29;;;;;;;1.30;0.82;;;;;;;;;;5099318;27;20012;-32
2022/05/26 13:40:02;;;;;;;2.30;0.90;;;;;;;;;;5101832;27;20084;-34
2022/05/26 13:42:28;;;;;;;1.77;0.95;;;;;;;;;;5083685;28;20090;-37
2022/05/26 13:44:53;;;;;;;2.03;0.98;;;;;;;;;;5085563;28;20031;-35
2022/05/26 13:47:19;;;;;;;1.70;0.73;;;;;;;;;;5087647;28;20038;-34
2022/05/26 13:49:44;;;;;;;2.23;1.10;;;;;;;;;;5086708;28;20049;-35
2022/05/26 13:52:13;;;;;;;1.33;0.80;;;;;;;;;;5083985;28;21205;-33
2022/05/26 13:54:55;;;;;;;1.38;0.68;;;;;;;;;;5102300;27;20019;-32
2022/05/26 13:57:24;;;;;;;1.65;1.00;;;;;;;;;;5106801;28;20032;-33
2022/05/26 13:59:53;;;;;;;2.38;1.00;;;;;;;;;;5102281;27;20035;-36
2022/05/26 14:02:20;;;;;;;1.10;0.82;;;;;;;;;;5104474;28;20421;-32
2022/05/26 14:04:56;;;;;;;0.85;0.70;;;;;;;;;;5106267;27;20020;-34
2022/05/26 14:07:32;;;;;;;1.67;0.90;;;;;;;;;;5105184;27;21232;-34
2022/05/26 14:10:01;;;;;;;2.05;0.80;;;;;;;;;;5108777;28;20033;-33
2022/05/26 14:12:30;;;;;;;1.40;0.70;;;;;;;;;;5110409;28;20078;-33
2022/05/26 14:14:56;;;;;;;1.20;0.70;;;;;;;;;;5109042;28;20054;-34
2022/05/26 14:17:28;;;;;;;2.75;0.70;;;;;;;;;;5108722;27;20134;-33
2022/05/26 14:19:55;;;;;;;1.30;0.85;;;;;;;;;;5104879;28;20095;-33
2022/05/26 14:22:23;;;;;;;1.77;0.80;;;;;;;;;;5105634;28;20053;-32
2022/05/26 14:24:49;;;;;;;1.50;0.73;;;;;;;;;;5109624;27;20719;-33
2022/05/26 14:27:24;;;;;;;1.40;0.75;;;;;;;;;;5089309;28;20019;-34
2022/05/26 14:29:50;;;;;;;1.00;0.60;;;;;;;;;;5106527;27;20028;-32
2022/05/26 14:32:45;;;;;;;1.13;0.77;;;;;;;;;;5086205;27;20521;-31
2022/05/26 14:35:14;;;;;;;0.70;0.63;;;;;;;;;;5088040;28;20053;-33
2022/05/26 14:37:40;;;;;;;1.17;0.55;;;;;;;;;;5080904;27;20031;-32
2022/05/26 14:40:05;;;;;;;0.70;0.52;;;;;;;;;;5071202;27;20462;-32
2022/05/26 14:42:32;;;;;;;1.38;0.70;;;;;;;;;;5072789;27;20027;-34
2022/05/26 14:44:58;;;;;;;1.80;0.80;;;;;;;;;;5073534;27;20022;-34
2022/05/26 14:47:23;;;;;;;1.48;0.80;;;;;;;;;;5072197;27;20019;-35
2022/05/26 14:49:48;;;;;;;0.93;0.80;;;;;;;;;;5069796;27;21268;-34
2022/05/26 14:52:16;;;;;;;1.58;0.90;;;;;;;;;;5076449;27;20669;-34
2022/05/26 14:57:25;;;;;;;1.55;0.80;;;;;;;;;;5080806;27;20038;-33
2022/05/26 14:59:51;;;;;;;1.20;0.73;;;;;;;;;;5081555;27;20069;-34
2022/05/26 15:02:16;;;;;;;1.05;0.73;;;;;;;;;;5080750;27;20039;-33
2022/05/26 15:04:41;;;;;;;1.85;0.82;;;;;;;;;;5085339;27;20544;-32
2022/05/26 15:07:07;;;;;;;1.10;0.80;;;;;;;;;;5078216;27;20192;-32
2022/05/26 15:09:32;;;;;;;1.17;0.65;;;;;;;;;;5073731;27;20035;-36
2022/05/26 15:11:58;;;;;;;0.65;0.65;;;;;;;;;;5082943;27;20023;-34
2022/05/26 15:14:23;;;;;;;0.70;0.60;;;;;;;;;;5074987;27;20026;-32
2022/05/26 15:16:48;;;;;;;0.60;0.55;;;;;;;;;;5079775;27;20023;-32
2022/05/26 15:19:23;;;;;;;1.48;0.70;;;;;;;;;;5054340;27;20468;-33
2022/05/26 15:21:49;;;;;;;0.88;0.60;;;;;;;;;;5080792;27;20088;-33
2022/05/26 15:24:14;;;;;;;1.30;0.55;;;;;;;;;;5083748;27;20024;-33
2022/05/26 15:26:40;;;;;;;1.75;0.63;;;;;;;;;;5080925;27;20038;-37
2022/05/26 15:29:05;;;;;;;1.52;0.85;;;;;;;;;;5066252;27;20119;-35
2022/05/26 15:31:31;;;;;;;1.05;0.63;;;;;;;;;;5077724;27;20492;-35
2022/05/26 15:33:56;;;;;;;1.17;0.68;;;;;;;;;;5070781;27;20034;-35